Calhoun, Louisiana
Current Conditions -  °F | °C
As of 12:35 AM on Thursday 27 Nov 2014 (Local Time) from KRSN Reporting Station
Clear Clear  
Wind Chill: 47°   Ceiling: Unl
Heat Index: 47°   Visibility: 10mi
Dew Point: 35°   Wind: 3mph
Humidity: 63%   Direction: 310°NW
Pressure: 30.35"   Gusts: NA
Location:  32.51°N, 92.36°W
Report Text: KRSN 270635Z AUTO 31003KT 10SM CLR 08/02 A3035 RMK AO2 T00840017
Loading
Personal Weather Stations






























Interactive Weather Map New forecast layout! Learn more

10-Day Weather Forecast

Advertisements
Track Severe Weather on mobile